Terminal Aerodrome Forecast
Issued by NWS

Home | Current Version | Previous Version | Graphics & Text | Print | Product List | Glossary On
Versions: 1 2 3 4 5 6 7 8 9 10 11 12 13 14 15 16 17 18 19 20
000
FTUS43 KTOP 221130
TAFMHK
TAF
KMHK 221130Z 2212/2312 29007KT 4SM BR VCSH OVC004
     FM221500 29011KT 3SM -RASN OVC008
     FM221800 30015G23KT 5SM -RASN OVC015
     FM222000 30021G29KT 3SM -SN OVC015
     FM230000 32015G23KT P6SM OVC020
     FM230600 32013G25KT P6SM BKN035=

USA.gov is the U.S. government's official web portal to all federal, state and local government web resources and services.